sensor_id;sensor_type;location;lat;lon;timestamp;pressure;altitude;pressure_sealevel;temperature;humidity
77192;BME280;66172;48.526;8.078;2023-03-23T00:01:48;98955.72;;;11.93;69.60
77192;BME280;66172;48.526;8.078;2023-03-23T00:04:17;98962.97;;;12.05;69.20
77192;BME280;66172;48.526;8.078;2023-03-23T00:06:44;98944.75;;;11.89;69.29
77192;BME280;66172;48.526;8.078;2023-03-23T00:09:12;98943.19;;;12.08;69.03
77192;BME280;66172;48.526;8.078;2023-03-23T00:11:41;98942.97;;;12.16;68.46
77192;BME280;66172;48.526;8.078;2023-03-23T00:14:09;98952.41;;;12.22;68.55
77192;BME280;66172;48.526;8.078;2023-03-23T00:16:39;98957.06;;;12.22;67.95
77192;BME280;66172;48.526;8.078;2023-03-23T00:19:11;98943.44;;;12.22;68.57
77192;BME280;66172;48.526;8.078;2023-03-23T00:21:42;98932.84;;;12.17;68.39
77192;BME280;66172;48.526;8.078;2023-03-23T00:24:16;98924.75;;;12.20;68.48
77192;BME280;66172;48.526;8.078;2023-03-23T00:26:47;98930.19;;;12.20;68.57
77192;BME280;66172;48.526;8.078;2023-03-23T00:29:18;98928.00;;;12.07;69.04
77192;BME280;66172;48.526;8.078;2023-03-23T00:31:45;98925.81;;;11.96;69.55
77192;BME280;66172;48.526;8.078;2023-03-23T00:34:20;98916.31;;;12.06;69.75
77192;BME280;66172;48.526;8.078;2023-03-23T00:36:47;98927.41;;;12.17;69.36
77192;BME280;66172;48.526;8.078;2023-03-23T00:39:14;98929.47;;;12.23;68.89
77192;BME280;66172;48.526;8.078;2023-03-23T00:41:45;98930.78;;;12.10;69.04
77192;BME280;66172;48.526;8.078;2023-03-23T00:44:13;98931.25;;;12.16;68.93
77192;BME280;66172;48.526;8.078;2023-03-23T00:46:45;98923.44;;;12.14;69.17
77192;BME280;66172;48.526;8.078;2023-03-23T00:49:16;98917.28;;;12.17;69.38
77192;BME280;66172;48.526;8.078;2023-03-23T00:51:43;98925.88;;;12.19;69.54
77192;BME280;66172;48.526;8.078;2023-03-23T00:54:09;98918.00;;;12.14;69.60
77192;BME280;66172;48.526;8.078;2023-03-23T00:56:36;98922.69;;;12.14;70.01
77192;BME280;66172;48.526;8.078;2023-03-23T00:59:02;98905.03;;;12.08;70.11
77192;BME280;66172;48.526;8.078;2023-03-23T01:01:29;98912.72;;;12.02;70.39
77192;BME280;66172;48.526;8.078;2023-03-23T01:03:55;98903.47;;;12.07;70.16
77192;BME280;66172;48.526;8.078;2023-03-23T01:06:30;98907.69;;;12.04;70.08
77192;BME280;66172;48.526;8.078;2023-03-23T01:08:57;98913.78;;;12.17;69.35
77192;BME280;66172;48.526;8.078;2023-03-23T01:11:23;98898.28;;;12.21;69.47
77192;BME280;66172;48.526;8.078;2023-03-23T01:13:51;98898.28;;;12.21;69.30
77192;BME280;66172;48.526;8.078;2023-03-23T01:16:17;98900.28;;;11.82;70.97
77192;BME280;66172;48.526;8.078;2023-03-23T01:18:43;98898.88;;;11.91;70.58
77192;BME280;66172;48.526;8.078;2023-03-23T01:21:11;98885.34;;;11.95;70.90
77192;BME280;66172;48.526;8.078;2023-03-23T01:23:39;98884.88;;;11.93;70.95
77192;BME280;66172;48.526;8.078;2023-03-23T01:26:07;98885.59;;;12.09;70.94
77192;BME280;66172;48.526;8.078;2023-03-23T01:28:34;98884.59;;;12.17;70.13
77192;BME280;66172;48.526;8.078;2023-03-23T01:31:08;98873.69;;;12.17;70.18
77192;BME280;66172;48.526;8.078;2023-03-23T01:33:35;98872.22;;;12.23;70.13
77192;BME280;66172;48.526;8.078;2023-03-23T01:36:04;98871.25;;;12.12;70.34
77192;BME280;66172;48.526;8.078;2023-03-23T01:38:30;98867.59;;;12.05;70.77
77192;BME280;66172;48.526;8.078;2023-03-23T01:40:56;98866.19;;;12.14;70.21
77192;BME280;66172;48.526;8.078;2023-03-23T01:43:22;98871.53;;;12.07;71.15
77192;BME280;66172;48.526;8.078;2023-03-23T01:45:48;98859.66;;;11.96;71.58
77192;BME280;66172;48.526;8.078;2023-03-23T01:48:30;98853.63;;;12.06;71.46
77192;BME280;66172;48.526;8.078;2023-03-23T01:51:08;98857.44;;;12.01;70.93
77192;BME280;66172;48.526;8.078;2023-03-23T01:53:56;98855.25;;;12.11;70.79
77192;BME280;66172;48.526;8.078;2023-03-23T01:56:26;98851.09;;;12.17;70.91
77192;BME280;66172;48.526;8.078;2023-03-23T01:58:56;98844.47;;;11.95;70.98
77192;BME280;66172;48.526;8.078;2023-03-23T02:01:22;98833.75;;;12.06;71.55
77192;BME280;66172;48.526;8.078;2023-03-23T02:03:52;98836.53;;;12.09;71.13
77192;BME280;66172;48.526;8.078;2023-03-23T02:06:19;98840.34;;;12.05;71.12
77192;BME280;66172;48.526;8.078;2023-03-23T02:08:45;98834.28;;;12.15;71.00
77192;BME280;66172;48.526;8.078;2023-03-23T02:11:15;98824.91;;;12.12;71.24
77192;BME280;66172;48.526;8.078;2023-03-23T02:13:42;98832.09;;;12.01;71.58
77192;BME280;66172;48.526;8.078;2023-03-23T02:19:10;98823.03;;;12.16;70.98
77192;BME280;66172;48.526;8.078;2023-03-23T02:24:48;98808.56;;;12.12;70.04
77192;BME280;66172;48.526;8.078;2023-03-23T02:27:35;98817.38;;;12.28;70.14
77192;BME280;66172;48.526;8.078;2023-03-23T02:30:40;98816.50;;;12.21;70.52
77192;BME280;66172;48.526;8.078;2023-03-23T02:33:38;98816.38;;;12.14;70.58
77192;BME280;66172;48.526;8.078;2023-03-23T02:42:09;98803.69;;;12.25;69.75
77192;BME280;66172;48.526;8.078;2023-03-23T02:44:39;98799.19;;;12.36;69.02
77192;BME280;66172;48.526;8.078;2023-03-23T02:47:11;98800.19;;;12.24;69.34
77192;BME280;66172;48.526;8.078;2023-03-23T02:49:40;98801.56;;;12.37;68.46
77192;BME280;66172;48.526;8.078;2023-03-23T02:52:11;98798.06;;;12.37;68.66
77192;BME280;66172;48.526;8.078;2023-03-23T02:54:42;98790.97;;;12.32;68.87
77192;BME280;66172;48.526;8.078;2023-03-23T02:57:09;98786.25;;;12.29;67.88
77192;BME280;66172;48.526;8.078;2023-03-23T02:59:35;98787.03;;;12.56;67.30
77192;BME280;66172;48.526;8.078;2023-03-23T03:04:33;98778.97;;;12.63;66.92
77192;BME280;66172;48.526;8.078;2023-03-23T03:07:18;98789.50;;;12.65;66.10
77192;BME280;66172;48.526;8.078;2023-03-23T03:09:58;98786.25;;;12.82;65.11
77192;BME280;66172;48.526;8.078;2023-03-23T03:12:51;98796.41;;;12.85;64.95
77192;BME280;66172;48.526;8.078;2023-03-23T03:15:23;98781.84;;;13.03;63.85
77192;BME280;66172;48.526;8.078;2023-03-23T03:18:03;98774.03;;;13.02;63.88
77192;BME280;66172;48.526;8.078;2023-03-23T03:20:32;98769.25;;;13.22;63.12
77192;BME280;66172;48.526;8.078;2023-03-23T03:23:01;98774.28;;;13.20;63.26
77192;BME280;66172;48.526;8.078;2023-03-23T03:25:28;98773.53;;;13.19;63.36
77192;BME280;66172;48.526;8.078;2023-03-23T03:27:54;98784.84;;;13.21;63.17
77192;BME280;66172;48.526;8.078;2023-03-23T03:30:26;98780.03;;;13.11;63.18
77192;BME280;66172;48.526;8.078;2023-03-23T03:32:54;98784.19;;;13.01;64.21
77192;BME280;66172;48.526;8.078;2023-03-23T03:35:22;98775.28;;;13.08;63.96
77192;BME280;66172;48.526;8.078;2023-03-23T03:37:49;98789.75;;;13.09;63.63
77192;BME280;66172;48.526;8.078;2023-03-23T03:40:18;98781.97;;;13.11;63.83
77192;BME280;66172;48.526;8.078;2023-03-23T03:42:45;98777.34;;;13.15;62.46
77192;BME280;66172;48.526;8.078;2023-03-23T03:45:17;98786.47;;;13.26;62.79
77192;BME280;66172;48.526;8.078;2023-03-23T03:47:43;98778.28;;;13.26;63.95
77192;BME280;66172;48.526;8.078;2023-03-23T03:50:09;98778.31;;;13.29;63.66
77192;BME280;66172;48.526;8.078;2023-03-23T03:52:36;98781.31;;;13.21;63.06
77192;BME280;66172;48.526;8.078;2023-03-23T03:55:05;98773.03;;;13.14;63.75
77192;BME280;66172;48.526;8.078;2023-03-23T03:57:33;98761.38;;;13.17;63.63
77192;BME280;66172;48.526;8.078;2023-03-23T03:59:59;98767.75;;;13.28;63.58
77192;BME280;66172;48.526;8.078;2023-03-23T04:02:24;98766.00;;;13.13;64.18
77192;BME280;66172;48.526;8.078;2023-03-23T04:04:51;98768.69;;;13.09;64.10
77192;BME280;66172;48.526;8.078;2023-03-23T04:07:19;98770.16;;;13.33;63.50
77192;BME280;66172;48.526;8.078;2023-03-23T04:09:47;98772.47;;;13.31;63.59
77192;BME280;66172;48.526;8.078;2023-03-23T04:12:14;98773.88;;;13.18;63.72
77192;BME280;66172;48.526;8.078;2023-03-23T04:14:40;98771.94;;;12.92;65.03
77192;BME280;66172;48.526;8.078;2023-03-23T04:17:06;98767.38;;;12.99;64.61
77192;BME280;66172;48.526;8.078;2023-03-23T04:19:36;98765.00;;;12.94;64.70
77192;BME280;66172;48.526;8.078;2023-03-23T04:22:03;98771.06;;;13.11;63.87
77192;BME280;66172;48.526;8.078;2023-03-23T04:24:30;98777.47;;;12.95;63.82
77192;BME280;66172;48.526;8.078;2023-03-23T04:26:59;98781.97;;;13.11;63.90
77192;BME280;66172;48.526;8.078;2023-03-23T04:29:26;98784.94;;;13.02;64.34
77192;BME280;66172;48.526;8.078;2023-03-23T04:31:52;98788.06;;;13.00;64.43
77192;BME280;66172;48.526;8.078;2023-03-23T04:34:18;98784.75;;;12.88;64.85
77192;BME280;66172;48.526;8.078;2023-03-23T04:36:44;98774.69;;;12.92;64.79
77192;BME280;66172;48.526;8.078;2023-03-23T04:39:12;98786.28;;;12.85;64.96
77192;BME280;66172;48.526;8.078;2023-03-23T04:41:39;98784.50;;;12.96;63.31
77192;BME280;66172;48.526;8.078;2023-03-23T04:44:06;98784.94;;;13.02;63.53
77192;BME280;66172;48.526;8.078;2023-03-23T04:46:33;98788.09;;;13.04;63.94
77192;BME280;66172;48.526;8.078;2023-03-23T04:48:59;98790.72;;;13.23;63.67
77192;BME280;66172;48.526;8.078;2023-03-23T04:51:25;98798.03;;;13.16;63.76
77192;BME280;66172;48.526;8.078;2023-03-23T04:53:52;98788.41;;;12.99;64.28
77192;BME280;66172;48.526;8.078;2023-03-23T04:56:18;98790.31;;;12.95;63.98
77192;BME280;66172;48.526;8.078;2023-03-23T04:58:45;98796.94;;;12.94;64.12
77192;BME280;66172;48.526;8.078;2023-03-23T05:01:12;98794.31;;;13.01;64.12
77192;BME280;66172;48.526;8.078;2023-03-23T05:03:44;98788.22;;;12.85;64.89
77192;BME280;66172;48.526;8.078;2023-03-23T05:06:10;98797.00;;;12.97;63.88
77192;BME280;66172;48.526;8.078;2023-03-23T05:08:36;98801.22;;;12.95;63.96
77192;BME280;66172;48.526;8.078;2023-03-23T05:11:06;98795.81;;;12.98;64.05
77192;BME280;66172;48.526;8.078;2023-03-23T05:13:32;98797.56;;;13.10;64.36
77192;BME280;66172;48.526;8.078;2023-03-23T05:16:03;98804.59;;;13.11;64.32
77192;BME280;66172;48.526;8.078;2023-03-23T05:18:28;98795.19;;;13.09;64.83
77192;BME280;66172;48.526;8.078;2023-03-23T05:20:54;98796.91;;;12.90;65.75
77192;BME280;66172;48.526;8.078;2023-03-23T05:23:20;98800.34;;;13.14;65.15
77192;BME280;66172;48.526;8.078;2023-03-23T05:25:55;98789.81;;;13.12;65.21
77192;BME280;66172;48.526;8.078;2023-03-23T05:28:22;98799.28;;;12.95;66.01
77192;BME280;66172;48.526;8.078;2023-03-23T05:30:48;98793.34;;;12.86;66.37
77192;BME280;66172;48.526;8.078;2023-03-23T05:33:14;98807.22;;;12.78;66.71
77192;BME280;66172;48.526;8.078;2023-03-23T05:35:40;98807.88;;;12.68;66.93
77192;BME280;66172;48.526;8.078;2023-03-23T05:38:07;98809.41;;;12.65;67.25
77192;BME280;66172;48.526;8.078;2023-03-23T05:40:33;98822.09;;;12.54;67.97
77192;BME280;66172;48.526;8.078;2023-03-23T05:42:58;98815.38;;;12.48;68.57
77192;BME280;66172;48.526;8.078;2023-03-23T05:45:25;98832.47;;;12.45;69.21
77192;BME280;66172;48.526;8.078;2023-03-23T05:47:52;98826.16;;;12.41;68.89
77192;BME280;66172;48.526;8.078;2023-03-23T05:50:18;98823.78;;;12.39;69.11
77192;BME280;66172;48.526;8.078;2023-03-23T05:52:44;98836.63;;;12.39;69.22
77192;BME280;66172;48.526;8.078;2023-03-23T05:55:11;98851.50;;;12.41;70.38
77192;BME280;66172;48.526;8.078;2023-03-23T05:57:38;98848.78;;;12.41;70.04
77192;BME280;66172;48.526;8.078;2023-03-23T06:00:05;98856.56;;;12.43;71.01
77192;BME280;66172;48.526;8.078;2023-03-23T06:02:40;98866.34;;;12.44;71.21
77192;BME280;66172;48.526;8.078;2023-03-23T06:05:10;98868.69;;;12.45;72.20
77192;BME280;66172;48.526;8.078;2023-03-23T06:07:36;98865.94;;;12.45;73.26
77192;BME280;66172;48.526;8.078;2023-03-23T06:10:06;98865.53;;;12.43;72.61
77192;BME280;66172;48.526;8.078;2023-03-23T06:12:33;98861.19;;;12.39;71.87
77192;BME280;66172;48.526;8.078;2023-03-23T06:14:58;98864.41;;;12.44;72.40
77192;BME280;66172;48.526;8.078;2023-03-23T06:17:24;98866.09;;;12.30;74.01
77192;BME280;66172;48.526;8.078;2023-03-23T06:19:50;98864.31;;;11.95;74.86
77192;BME280;66172;48.526;8.078;2023-03-23T06:22:17;98867.06;;;11.76;76.77
77192;BME280;66172;48.526;8.078;2023-03-23T06:24:43;98879.59;;;11.62;77.80
77192;BME280;66172;48.526;8.078;2023-03-23T06:27:10;98889.22;;;11.75;77.38
77192;BME280;66172;48.526;8.078;2023-03-23T06:29:36;98882.44;;;11.69;76.79
77192;BME280;66172;48.526;8.078;2023-03-23T06:32:04;98888.00;;;12.14;75.11
77192;BME280;66172;48.526;8.078;2023-03-23T06:34:30;98892.44;;;12.22;75.11
77192;BME280;66172;48.526;8.078;2023-03-23T06:36:58;98898.97;;;12.18;75.09
77192;BME280;66172;48.526;8.078;2023-03-23T06:39:24;98910.66;;;12.18;75.07
77192;BME280;66172;48.526;8.078;2023-03-23T06:41:50;98902.00;;;12.13;75.42
77192;BME280;66172;48.526;8.078;2023-03-23T06:44:17;98902.63;;;12.25;74.99
77192;BME280;66172;48.526;8.078;2023-03-23T06:46:43;98914.91;;;12.16;76.04
77192;BME280;66172;48.526;8.078;2023-03-23T06:49:09;98910.66;;;12.18;75.99
77192;BME280;66172;48.526;8.078;2023-03-23T06:51:36;98914.84;;;12.12;76.59
77192;BME280;66172;48.526;8.078;2023-03-23T06:54:03;98916.78;;;12.12;76.90
77192;BME280;66172;48.526;8.078;2023-03-23T06:56:29;98923.88;;;12.16;76.81
77192;BME280;66172;48.526;8.078;2023-03-23T06:58:55;98933.41;;;12.26;76.48
77192;BME280;66172;48.526;8.078;2023-03-23T07:01:21;98945.56;;;12.09;77.91
77192;BME280;66172;48.526;8.078;2023-03-23T07:03:47;98945.56;;;12.09;78.19
77192;BME280;66172;48.526;8.078;2023-03-23T07:06:14;98950.94;;;12.06;78.65
77192;BME280;66172;48.526;8.078;2023-03-23T07:08:42;98954.31;;;11.99;79.17
77192;BME280;66172;48.526;8.078;2023-03-23T07:11:08;98951.72;;;12.06;79.86
77192;BME280;66172;48.526;8.078;2023-03-23T07:13:35;98955.44;;;12.17;79.42
77192;BME280;66172;48.526;8.078;2023-03-23T07:16:04;98959.50;;;12.27;79.36
77192;BME280;66172;48.526;8.078;2023-03-23T07:18:31;98943.81;;;12.20;79.14
77192;BME280;66172;48.526;8.078;2023-03-23T07:20:58;98947.22;;;12.36;78.69
77192;BME280;66172;48.526;8.078;2023-03-23T07:23:24;98943.50;;;12.25;79.58
77192;BME280;66172;48.526;8.078;2023-03-23T07:25:50;98940.63;;;12.37;79.39
77192;BME280;66172;48.526;8.078;2023-03-23T07:28:16;98949.09;;;12.32;79.38
77192;BME280;66172;48.526;8.078;2023-03-23T07:30:42;98944.69;;;12.47;79.34
77192;BME280;66172;48.526;8.078;2023-03-23T07:33:09;98957.53;;;12.46;79.95
77192;BME280;66172;48.526;8.078;2023-03-23T07:35:35;98954.50;;;12.51;79.79
77192;BME280;66172;48.526;8.078;2023-03-23T07:38:03;98960.69;;;12.48;80.17
77192;BME280;66172;48.526;8.078;2023-03-23T07:40:30;98965.50;;;12.36;80.69
77192;BME280;66172;48.526;8.078;2023-03-23T07:42:59;98970.25;;;12.39;80.99
77192;BME280;66172;48.526;8.078;2023-03-23T07:45:26;98964.72;;;12.35;81.33
77192;BME280;66172;48.526;8.078;2023-03-23T07:47:52;98969.50;;;12.42;81.21
77192;BME280;66172;48.526;8.078;2023-03-23T07:50:19;98972.88;;;12.55;80.84
77192;BME280;66172;48.526;8.078;2023-03-23T07:52:48;98977.13;;;12.52;80.74
77192;BME280;66172;48.526;8.078;2023-03-23T07:55:14;98971.28;;;12.53;81.05
77192;BME280;66172;48.526;8.078;2023-03-23T07:57:47;98968.50;;;12.50;81.38
77192;BME280;66172;48.526;8.078;2023-03-23T08:00:16;98972.81;;;12.51;81.41
77192;BME280;66172;48.526;8.078;2023-03-23T08:02:52;98974.53;;;12.59;80.90
77192;BME280;66172;48.526;8.078;2023-03-23T08:05:19;98985.19;;;12.68;80.88
77192;BME280;66172;48.526;8.078;2023-03-23T08:07:46;98991.13;;;12.73;80.63
77192;BME280;66172;48.526;8.078;2023-03-23T08:10:14;98983.84;;;12.81;80.19
77192;BME280;66172;48.526;8.078;2023-03-23T08:12:41;98993.38;;;12.90;79.85
77192;BME280;66172;48.526;8.078;2023-03-23T08:15:10;98988.03;;;12.97;79.93
77192;BME280;66172;48.526;8.078;2023-03-23T08:17:39;98990.38;;;12.99;79.79
77192;BME280;66172;48.526;8.078;2023-03-23T08:20:06;98989.81;;;12.86;81.08
77192;BME280;66172;48.526;8.078;2023-03-23T08:22:37;98992.81;;;13.04;80.36
77192;BME280;66172;48.526;8.078;2023-03-23T08:25:05;99006.00;;;13.21;79.33
77192;BME280;66172;48.526;8.078;2023-03-23T08:27:32;99011.56;;;13.28;78.88
77192;BME280;66172;48.526;8.078;2023-03-23T08:29:58;99009.50;;;13.22;79.35
77192;BME280;66172;48.526;8.078;2023-03-23T08:32:25;99015.31;;;13.20;79.99
77192;BME280;66172;48.526;8.078;2023-03-23T08:34:52;99009.19;;;13.27;79.55
77192;BME280;66172;48.526;8.078;2023-03-23T08:37:18;99014.47;;;13.39;79.28
77192;BME280;66172;48.526;8.078;2023-03-23T08:39:44;99007.97;;;13.47;78.93
77192;BME280;66172;48.526;8.078;2023-03-23T08:42:10;99019.03;;;13.58;78.62
77192;BME280;66172;48.526;8.078;2023-03-23T08:44:36;99012.44;;;13.62;77.99
77192;BME280;66172;48.526;8.078;2023-03-23T08:47:03;99017.16;;;13.65;77.78
77192;BME280;66172;48.526;8.078;2023-03-23T08:49:30;99025.38;;;13.65;78.15
77192;BME280;66172;48.526;8.078;2023-03-23T08:51:58;99037.41;;;13.61;78.10
77192;BME280;66172;48.526;8.078;2023-03-23T08:54:24;99048.69;;;13.59;77.59
77192;BME280;66172;48.526;8.078;2023-03-23T08:56:50;99059.63;;;13.59;77.54
77192;BME280;66172;48.526;8.078;2023-03-23T08:59:16;99060.78;;;13.58;78.01
77192;BME280;66172;48.526;8.078;2023-03-23T09:01:42;99059.13;;;13.50;77.57
77192;BME280;66172;48.526;8.078;2023-03-23T09:04:08;99053.44;;;13.36;77.70
77192;BME280;66172;48.526;8.078;2023-03-23T09:06:36;99049.28;;;13.45;77.14
77192;BME280;66172;48.526;8.078;2023-03-23T09:09:03;99047.44;;;13.53;76.59
77192;BME280;66172;48.526;8.078;2023-03-23T09:11:36;99044.03;;;13.60;75.88
77192;BME280;66172;48.526;8.078;2023-03-23T09:14:03;99043.34;;;13.66;75.44
77192;BME280;66172;48.526;8.078;2023-03-23T09:16:29;99045.63;;;13.61;75.19
77192;BME280;66172;48.526;8.078;2023-03-23T09:18:55;99036.13;;;13.28;79.49
77192;BME280;66172;48.526;8.078;2023-03-23T09:21:23;99044.69;;;13.27;80.58
77192;BME280;66172;48.526;8.078;2023-03-23T09:23:51;99033.31;;;13.47;79.94
77192;BME280;66172;48.526;8.078;2023-03-23T09:26:17;99033.22;;;13.40;80.08
77192;BME280;66172;48.526;8.078;2023-03-23T09:28:43;99025.25;;;13.58;79.49
77192;BME280;66172;48.526;8.078;2023-03-23T09:31:12;99031.38;;;13.74;78.13
77192;BME280;66172;48.526;8.078;2023-03-23T09:33:38;99025.94;;;13.51;78.82
77192;BME280;66172;48.526;8.078;2023-03-23T09:36:05;99037.72;;;13.82;77.77
77192;BME280;66172;48.526;8.078;2023-03-23T09:38:33;99045.28;;;13.92;77.24
77192;BME280;66172;48.526;8.078;2023-03-23T09:46:53;99030.50;;;13.96;75.15
77192;BME280;66172;48.526;8.078;2023-03-23T09:49:33;99026.66;;;13.71;76.09
77192;BME280;66172;48.526;8.078;2023-03-23T09:52:13;99042.06;;;13.86;75.35
77192;BME280;66172;48.526;8.078;2023-03-23T09:54:52;99040.00;;;14.06;74.95
77192;BME280;66172;48.526;8.078;2023-03-23T09:57:28;99046.75;;;14.16;74.35
77192;BME280;66172;48.526;8.078;2023-03-23T10:00:02;99053.53;;;14.29;73.48
77192;BME280;66172;48.526;8.078;2023-03-23T10:02:39;99049.69;;;14.33;73.50
77192;BME280;66172;48.526;8.078;2023-03-23T10:05:30;99049.31;;;14.65;72.39
77192;BME280;66172;48.526;8.078;2023-03-23T10:07:59;99047.44;;;14.72;72.01
77192;BME280;66172;48.526;8.078;2023-03-23T10:10:40;99047.94;;;14.85;70.81
77192;BME280;66172;48.526;8.078;2023-03-23T10:13:23;99057.75;;;14.86;69.72
77192;BME280;66172;48.526;8.078;2023-03-23T10:15:52;99049.88;;;14.81;70.67
77192;BME280;66172;48.526;8.078;2023-03-23T10:18:26;99044.00;;;14.82;70.33
77192;BME280;66172;48.526;8.078;2023-03-23T10:20:59;99056.53;;;14.83;70.05
77192;BME280;66172;48.526;8.078;2023-03-23T10:26:12;99059.25;;;14.46;71.39
77192;BME280;66172;48.526;8.078;2023-03-23T10:28:45;99046.47;;;14.24;73.76
77192;BME280;66172;48.526;8.078;2023-03-23T10:31:18;99051.72;;;14.36;72.87
77192;BME280;66172;48.526;8.078;2023-03-23T10:33:47;99053.19;;;14.64;71.89
77192;BME280;66172;48.526;8.078;2023-03-23T10:36:37;99050.00;;;14.91;70.64
77192;BME280;66172;48.526;8.078;2023-03-23T10:39:10;99051.34;;;15.12;69.64
77192;BME280;66172;48.526;8.078;2023-03-23T10:41:38;99055.66;;;15.13;69.93
77192;BME280;66172;48.526;8.078;2023-03-23T10:44:14;99054.56;;;15.24;70.01
77192;BME280;66172;48.526;8.078;2023-03-23T10:49:19;99047.47;;;15.64;68.84
77192;BME280;66172;48.526;8.078;2023-03-23T10:54:32;99047.06;;;16.37;66.53
77192;BME280;66172;48.526;8.078;2023-03-23T10:57:12;99042.47;;;16.66;64.50
77192;BME280;66172;48.526;8.078;2023-03-23T10:59:40;99037.03;;;16.91;64.80
77192;BME280;66172;48.526;8.078;2023-03-23T11:02:15;99040.97;;;17.11;63.21
77192;BME280;66172;48.526;8.078;2023-03-23T11:04:46;99040.97;;;17.29;63.01
77192;BME280;66172;48.526;8.078;2023-03-23T11:07:25;99046.09;;;17.34;63.08
77192;BME280;66172;48.526;8.078;2023-03-23T11:09:54;99057.09;;;17.30;62.34
77192;BME280;66172;48.526;8.078;2023-03-23T11:12:21;99044.91;;;17.14;62.18
77192;BME280;66172;48.526;8.078;2023-03-23T11:14:49;99045.31;;;17.09;62.45
77192;BME280;66172;48.526;8.078;2023-03-23T11:17:26;99055.13;;;17.03;61.28
77192;BME280;66172;48.526;8.078;2023-03-23T11:19:53;99057.84;;;16.99;62.35
77192;BME280;66172;48.526;8.078;2023-03-23T11:22:26;99054.69;;;16.86;61.81
77192;BME280;66172;48.526;8.078;2023-03-23T11:24:54;99058.16;;;16.66;62.12
77192;BME280;66172;48.526;8.078;2023-03-23T11:27:23;99058.53;;;16.57;62.21
77192;BME280;66172;48.526;8.078;2023-03-23T11:29:56;99053.72;;;16.40;62.33
77192;BME280;66172;48.526;8.078;2023-03-23T11:32:26;99060.38;;;16.28;61.26
77192;BME280;66172;48.526;8.078;2023-03-23T11:34:57;99054.44;;;16.23;62.12
77192;BME280;66172;48.526;8.078;2023-03-23T11:37:34;99056.38;;;16.15;62.42
77192;BME280;66172;48.526;8.078;2023-03-23T11:40:15;99059.47;;;16.07;63.36
77192;BME280;66172;48.526;8.078;2023-03-23T11:56:08;99062.47;;;16.56;61.87
77192;BME280;66172;48.526;8.078;2023-03-23T11:58:37;99047.19;;;16.66;60.02
77192;BME280;66172;48.526;8.078;2023-03-23T12:01:12;99046.06;;;16.88;60.59
77192;BME280;66172;48.526;8.078;2023-03-23T12:06:35;99041.78;;;17.29;60.62
77192;BME280;66172;48.526;8.078;2023-03-23T12:14:16;99031.56;;;17.55;58.88
77192;BME280;66172;48.526;8.078;2023-03-23T12:17:18;99027.25;;;17.64;58.17
77192;BME280;66172;48.526;8.078;2023-03-23T12:28:06;99013.88;;;17.63;57.24
77192;BME280;66172;48.526;8.078;2023-03-23T12:30:42;99008.78;;;17.43;56.71
77192;BME280;66172;48.526;8.078;2023-03-23T12:33:36;99000.16;;;17.48;55.43
77192;BME280;66172;48.526;8.078;2023-03-23T12:36:22;98997.78;;;17.54;53.95
77192;BME280;66172;48.526;8.078;2023-03-23T12:39:10;99000.53;;;17.58;56.09
77192;BME280;66172;48.526;8.078;2023-03-23T12:44:13;98998.94;;;17.74;55.15
77192;BME280;66172;48.526;8.078;2023-03-23T12:51:45;98998.47;;;17.97;55.04
77192;BME280;66172;48.526;8.078;2023-03-23T12:54:37;98996.88;;;18.03;55.16
77192;BME280;66172;48.526;8.078;2023-03-23T12:57:12;98995.28;;;18.06;54.13
77192;BME280;66172;48.526;8.078;2023-03-23T12:59:45;99000.34;;;18.21;53.23
77192;BME280;66172;48.526;8.078;2023-03-23T13:02:22;98990.88;;;18.33;53.55
77192;BME280;66172;48.526;8.078;2023-03-23T13:05:10;98982.94;;;18.38;53.52
77192;BME280;66172;48.526;8.078;2023-03-23T13:07:43;98978.22;;;18.39;53.04
77192;BME280;66172;48.526;8.078;2023-03-23T13:10:22;98975.72;;;18.69;52.27
77192;BME280;66172;48.526;8.078;2023-03-23T13:12:50;98971.19;;;18.93;52.16
77192;BME280;66172;48.526;8.078;2023-03-23T13:26:07;98943.13;;;19.50;50.95
77192;BME280;66172;48.526;8.078;2023-03-23T13:31:32;98940.72;;;19.55;50.11
77192;BME280;66172;48.526;8.078;2023-03-23T13:34:02;98944.91;;;19.67;50.62
77192;BME280;66172;48.526;8.078;2023-03-23T13:36:37;98941.56;;;19.52;50.45
77192;BME280;66172;48.526;8.078;2023-03-23T13:39:20;98942.50;;;19.35;50.38
77192;BME280;66172;48.526;8.078;2023-03-23T13:41:49;98940.00;;;19.51;50.23
77192;BME280;66172;48.526;8.078;2023-03-23T13:44:25;98940.03;;;19.48;50.56
77192;BME280;66172;48.526;8.078;2023-03-23T13:49:51;98925.59;;;19.29;51.25
77192;BME280;66172;48.526;8.078;2023-03-23T13:57:52;98907.00;;;19.00;51.93
77192;BME280;66172;48.526;8.078;2023-03-23T14:05:50;98901.09;;;18.98;51.75
77192;BME280;66172;48.526;8.078;2023-03-23T14:13:33;98880.25;;;18.93;50.32
77192;BME280;66172;48.526;8.078;2023-03-23T14:16:04;98874.09;;;18.82;50.52
77192;BME280;66172;48.526;8.078;2023-03-23T14:18:36;98871.34;;;18.82;50.83
77192;BME280;66172;48.526;8.078;2023-03-23T14:21:04;98871.69;;;18.84;51.17
77192;BME280;66172;48.526;8.078;2023-03-23T14:23:32;98861.59;;;18.70;51.12
77192;BME280;66172;48.526;8.078;2023-03-23T14:26:02;98864.75;;;18.69;51.14
77192;BME280;66172;48.526;8.078;2023-03-23T14:28:49;98871.97;;;18.52;51.28
77192;BME280;66172;48.526;8.078;2023-03-23T14:31:23;98870.44;;;18.40;52.38
77192;BME280;66172;48.526;8.078;2023-03-23T14:33:51;98863.66;;;18.01;53.60
77192;BME280;66172;48.526;8.078;2023-03-23T14:36:28;98864.66;;;18.24;53.27
77192;BME280;66172;48.526;8.078;2023-03-23T14:39:05;98874.53;;;18.22;53.21
77192;BME280;66172;48.526;8.078;2023-03-23T14:41:34;98866.66;;;18.20;52.29
77192;BME280;66172;48.526;8.078;2023-03-23T14:44:03;98882.06;;;18.07;52.24
77192;BME280;66172;48.526;8.078;2023-03-23T14:46:31;98866.75;;;18.03;51.98
77192;BME280;66172;48.526;8.078;2023-03-23T14:49:01;98885.50;;;18.25;52.63
77192;BME280;66172;48.526;8.078;2023-03-23T14:51:27;98884.19;;;18.44;48.03
77192;BME280;66172;48.526;8.078;2023-03-23T14:53:53;98881.47;;;18.37;46.85